sensor_id;sensor_type;location;lat;lon;timestamp;P1;durP1;ratioP1;P2;durP2;ratioP2
4521;SDS011;2273;48.464;11.926;2023-04-23T00:00:22;8.37;;;5.97;;
4521;SDS011;2273;48.464;11.926;2023-04-23T00:02:48;7.70;;;6.10;;
4521;SDS011;2273;48.464;11.926;2023-04-23T00:05:17;11.23;;;6.40;;
4521;SDS011;2273;48.464;11.926;2023-04-23T00:07:44;14.73;;;7.07;;
4521;SDS011;2273;48.464;11.926;2023-04-23T00:10:10;11.10;;;7.60;;
4521;SDS011;2273;48.464;11.926;2023-04-23T00:12:35;7.57;;;6.13;;
4521;SDS011;2273;48.464;11.926;2023-04-23T00:15:01;8.67;;;5.40;;
4521;SDS011;2273;48.464;11.926;2023-04-23T00:17:28;10.07;;;5.53;;
4521;SDS011;2273;48.464;11.926;2023-04-23T00:19:53;8.83;;;5.60;;
4521;SDS011;2273;48.464;11.926;2023-04-23T00:22:18;8.20;;;5.57;;
4521;SDS011;2273;48.464;11.926;2023-04-23T00:24:44;9.73;;;7.00;;
4521;SDS011;2273;48.464;11.926;2023-04-23T00:27:10;7.53;;;5.83;;
4521;SDS011;2273;48.464;11.926;2023-04-23T00:29:36;10.23;;;6.37;;
4521;SDS011;2273;48.464;11.926;2023-04-23T00:32:01;10.83;;;5.93;;
4521;SDS011;2273;48.464;11.926;2023-04-23T00:34:27;10.37;;;6.20;;
4521;SDS011;2273;48.464;11.926;2023-04-23T00:36:53;11.73;;;6.20;;
4521;SDS011;2273;48.464;11.926;2023-04-23T00:39:18;7.60;;;5.60;;
4521;SDS011;2273;48.464;11.926;2023-04-23T00:41:44;10.90;;;5.60;;
4521;SDS011;2273;48.464;11.926;2023-04-23T00:44:09;12.97;;;4.83;;
4521;SDS011;2273;48.464;11.926;2023-04-23T00:46:36;7.17;;;5.30;;
4521;SDS011;2273;48.464;11.926;2023-04-23T00:49:01;7.60;;;5.30;;
4521;SDS011;2273;48.464;11.926;2023-04-23T00:51:27;6.70;;;5.53;;
4521;SDS011;2273;48.464;11.926;2023-04-23T00:53:53;7.50;;;5.43;;
4521;SDS011;2273;48.464;11.926;2023-04-23T00:56:20;11.00;;;5.93;;
4521;SDS011;2273;48.464;11.926;2023-04-23T00:58:47;7.93;;;5.80;;
4521;SDS011;2273;48.464;11.926;2023-04-23T01:01:12;6.77;;;5.10;;
4521;SDS011;2273;48.464;11.926;2023-04-23T01:03:38;9.07;;;6.30;;
4521;SDS011;2273;48.464;11.926;2023-04-23T01:06:06;7.10;;;5.47;;
4521;SDS011;2273;48.464;11.926;2023-04-23T01:08:31;7.90;;;6.20;;
4521;SDS011;2273;48.464;11.926;2023-04-23T01:10:58;8.30;;;6.30;;
4521;SDS011;2273;48.464;11.926;2023-04-23T01:13:24;11.07;;;5.57;;
4521;SDS011;2273;48.464;11.926;2023-04-23T01:15:53;6.73;;;5.50;;
4521;SDS011;2273;48.464;11.926;2023-04-23T01:18:19;7.90;;;5.87;;
4521;SDS011;2273;48.464;11.926;2023-04-23T01:20:45;9.43;;;5.30;;
4521;SDS011;2273;48.464;11.926;2023-04-23T01:23:10;8.90;;;4.73;;
4521;SDS011;2273;48.464;11.926;2023-04-23T01:25:37;7.40;;;5.10;;
4521;SDS011;2273;48.464;11.926;2023-04-23T01:28:03;7.67;;;5.00;;
4521;SDS011;2273;48.464;11.926;2023-04-23T01:30:30;8.83;;;5.53;;
4521;SDS011;2273;48.464;11.926;2023-04-23T01:32:56;5.87;;;4.70;;
4521;SDS011;2273;48.464;11.926;2023-04-23T01:35:22;9.87;;;5.47;;
4521;SDS011;2273;48.464;11.926;2023-04-23T01:37:48;8.90;;;5.60;;
4521;SDS011;2273;48.464;11.926;2023-04-23T01:40:17;9.03;;;5.70;;
4521;SDS011;2273;48.464;11.926;2023-04-23T01:42:43;12.00;;;6.20;;
4521;SDS011;2273;48.464;11.926;2023-04-23T01:45:08;8.00;;;6.30;;
4521;SDS011;2273;48.464;11.926;2023-04-23T01:47:34;9.83;;;5.37;;
4521;SDS011;2273;48.464;11.926;2023-04-23T01:50:00;8.17;;;5.83;;
4521;SDS011;2273;48.464;11.926;2023-04-23T01:52:26;10.10;;;6.00;;
4521;SDS011;2273;48.464;11.926;2023-04-23T01:54:51;8.20;;;5.60;;
4521;SDS011;2273;48.464;11.926;2023-04-23T01:57:17;12.90;;;6.00;;
4521;SDS011;2273;48.464;11.926;2023-04-23T01:59:48;9.23;;;6.80;;
4521;SDS011;2273;48.464;11.926;2023-04-23T02:02:14;14.97;;;6.40;;
4521;SDS011;2273;48.464;11.926;2023-04-23T02:04:40;8.03;;;5.70;;
4521;SDS011;2273;48.464;11.926;2023-04-23T02:07:08;10.10;;;5.80;;
4521;SDS011;2273;48.464;11.926;2023-04-23T02:09:34;15.83;;;6.20;;
4521;SDS011;2273;48.464;11.926;2023-04-23T02:11:59;9.57;;;5.70;;
4521;SDS011;2273;48.464;11.926;2023-04-23T02:14:25;8.50;;;6.70;;
4521;SDS011;2273;48.464;11.926;2023-04-23T02:16:51;8.10;;;6.00;;
4521;SDS011;2273;48.464;11.926;2023-04-23T02:19:17;7.90;;;5.90;;
4521;SDS011;2273;48.464;11.926;2023-04-23T02:21:42;9.03;;;5.70;;
4521;SDS011;2273;48.464;11.926;2023-04-23T02:24:08;8.50;;;5.67;;
4521;SDS011;2273;48.464;11.926;2023-04-23T02:26:35;9.00;;;6.53;;
4521;SDS011;2273;48.464;11.926;2023-04-23T02:29:00;9.40;;;6.40;;
4521;SDS011;2273;48.464;11.926;2023-04-23T02:31:26;9.50;;;6.37;;
4521;SDS011;2273;48.464;11.926;2023-04-23T02:33:53;9.03;;;6.20;;
4521;SDS011;2273;48.464;11.926;2023-04-23T02:36:19;11.70;;;6.60;;
4521;SDS011;2273;48.464;11.926;2023-04-23T02:38:44;9.03;;;6.00;;
4521;SDS011;2273;48.464;11.926;2023-04-23T02:41:12;9.07;;;6.50;;
4521;SDS011;2273;48.464;11.926;2023-04-23T02:43:38;10.30;;;6.80;;
4521;SDS011;2273;48.464;11.926;2023-04-23T02:46:03;7.93;;;6.63;;
4521;SDS011;2273;48.464;11.926;2023-04-23T02:48:39;10.67;;;6.93;;
4521;SDS011;2273;48.464;11.926;2023-04-23T02:51:06;8.37;;;6.70;;
4521;SDS011;2273;48.464;11.926;2023-04-23T02:53:33;10.47;;;7.10;;
4521;SDS011;2273;48.464;11.926;2023-04-23T02:55:58;13.57;;;7.83;;
4521;SDS011;2273;48.464;11.926;2023-04-23T02:58:25;16.30;;;8.50;;
4521;SDS011;2273;48.464;11.926;2023-04-23T03:00:53;15.30;;;8.10;;
4521;SDS011;2273;48.464;11.926;2023-04-23T03:03:19;17.23;;;9.30;;
4521;SDS011;2273;48.464;11.926;2023-04-23T03:05:45;19.23;;;9.17;;
4521;SDS011;2273;48.464;11.926;2023-04-23T03:08:10;12.20;;;7.60;;
4521;SDS011;2273;48.464;11.926;2023-04-23T03:10:35;11.80;;;7.03;;
4521;SDS011;2273;48.464;11.926;2023-04-23T03:13:01;10.20;;;7.03;;
4521;SDS011;2273;48.464;11.926;2023-04-23T03:15:26;8.07;;;6.23;;
4521;SDS011;2273;48.464;11.926;2023-04-23T03:17:52;10.50;;;7.23;;
4521;SDS011;2273;48.464;11.926;2023-04-23T03:20:18;9.70;;;6.30;;
4521;SDS011;2273;48.464;11.926;2023-04-23T03:22:44;9.23;;;6.97;;
4521;SDS011;2273;48.464;11.926;2023-04-23T03:25:11;11.73;;;6.30;;
4521;SDS011;2273;48.464;11.926;2023-04-23T03:27:40;9.27;;;7.77;;
4521;SDS011;2273;48.464;11.926;2023-04-23T03:30:07;11.30;;;5.93;;
4521;SDS011;2273;48.464;11.926;2023-04-23T03:32:33;8.70;;;6.77;;
4521;SDS011;2273;48.464;11.926;2023-04-23T03:34:59;10.77;;;5.80;;
4521;SDS011;2273;48.464;11.926;2023-04-23T03:37:26;7.73;;;6.13;;
4521;SDS011;2273;48.464;11.926;2023-04-23T03:39:51;10.03;;;7.50;;
4521;SDS011;2273;48.464;11.926;2023-04-23T03:42:17;7.40;;;5.93;;
4521;SDS011;2273;48.464;11.926;2023-04-23T03:44:43;9.40;;;6.50;;
4521;SDS011;2273;48.464;11.926;2023-04-23T03:47:08;12.50;;;6.97;;
4521;SDS011;2273;48.464;11.926;2023-04-23T03:49:34;10.80;;;7.83;;
4521;SDS011;2273;48.464;11.926;2023-04-23T03:52:00;10.87;;;7.57;;
4521;SDS011;2273;48.464;11.926;2023-04-23T03:54:27;9.43;;;7.30;;
4521;SDS011;2273;48.464;11.926;2023-04-23T03:57:06;12.00;;;7.60;;
4521;SDS011;2273;48.464;11.926;2023-04-23T03:59:37;10.20;;;7.07;;
4521;SDS011;2273;48.464;11.926;2023-04-23T04:02:02;11.30;;;7.77;;
4521;SDS011;2273;48.464;11.926;2023-04-23T04:04:28;9.77;;;7.00;;
4521;SDS011;2273;48.464;11.926;2023-04-23T04:06:55;9.33;;;7.10;;
4521;SDS011;2273;48.464;11.926;2023-04-23T04:09:25;9.50;;;7.50;;
4521;SDS011;2273;48.464;11.926;2023-04-23T04:11:51;9.17;;;6.97;;
4521;SDS011;2273;48.464;11.926;2023-04-23T04:14:18;10.00;;;7.47;;
4521;SDS011;2273;48.464;11.926;2023-04-23T04:16:43;11.60;;;7.90;;
4521;SDS011;2273;48.464;11.926;2023-04-23T04:19:09;13.90;;;8.00;;
4521;SDS011;2273;48.464;11.926;2023-04-23T04:21:35;9.27;;;7.30;;
4521;SDS011;2273;48.464;11.926;2023-04-23T04:24:01;11.67;;;9.33;;
4521;SDS011;2273;48.464;11.926;2023-04-23T04:26:27;10.40;;;8.30;;
4521;SDS011;2273;48.464;11.926;2023-04-23T04:28:53;9.90;;;8.47;;
4521;SDS011;2273;48.464;11.926;2023-04-23T04:31:19;15.10;;;9.40;;
4521;SDS011;2273;48.464;11.926;2023-04-23T04:33:46;10.87;;;8.63;;
4521;SDS011;2273;48.464;11.926;2023-04-23T04:36:12;12.50;;;9.70;;
4521;SDS011;2273;48.464;11.926;2023-04-23T04:38:37;13.77;;;9.13;;
4521;SDS011;2273;48.464;11.926;2023-04-23T04:41:03;16.00;;;9.60;;
4521;SDS011;2273;48.464;11.926;2023-04-23T04:43:29;24.90;;;9.83;;
4521;SDS011;2273;48.464;11.926;2023-04-23T04:45:55;12.57;;;8.73;;
4521;SDS011;2273;48.464;11.926;2023-04-23T04:48:23;14.57;;;8.60;;
4521;SDS011;2273;48.464;11.926;2023-04-23T04:50:48;13.83;;;8.70;;
4521;SDS011;2273;48.464;11.926;2023-04-23T04:53:14;12.37;;;9.07;;
4521;SDS011;2273;48.464;11.926;2023-04-23T04:55:39;16.67;;;8.97;;
4521;SDS011;2273;48.464;11.926;2023-04-23T04:58:05;14.57;;;7.93;;
4521;SDS011;2273;48.464;11.926;2023-04-23T05:00:31;11.60;;;8.30;;
4521;SDS011;2273;48.464;11.926;2023-04-23T05:02:56;9.97;;;8.23;;
4521;SDS011;2273;48.464;11.926;2023-04-23T05:05:23;11.43;;;8.50;;
4521;SDS011;2273;48.464;11.926;2023-04-23T05:07:49;15.27;;;8.07;;
4521;SDS011;2273;48.464;11.926;2023-04-23T05:10:14;9.97;;;7.80;;
4521;SDS011;2273;48.464;11.926;2023-04-23T05:12:40;10.57;;;7.50;;
4521;SDS011;2273;48.464;11.926;2023-04-23T05:15:07;9.67;;;8.20;;
4521;SDS011;2273;48.464;11.926;2023-04-23T05:17:34;13.23;;;8.80;;
4521;SDS011;2273;48.464;11.926;2023-04-23T05:19:59;11.00;;;7.00;;
4521;SDS011;2273;48.464;11.926;2023-04-23T05:22:25;11.47;;;8.50;;
4521;SDS011;2273;48.464;11.926;2023-04-23T05:24:51;10.50;;;7.33;;
4521;SDS011;2273;48.464;11.926;2023-04-23T05:27:16;8.97;;;7.00;;
4521;SDS011;2273;48.464;11.926;2023-04-23T05:29:42;14.57;;;10.00;;
4521;SDS011;2273;48.464;11.926;2023-04-23T05:32:08;10.37;;;7.50;;
4521;SDS011;2273;48.464;11.926;2023-04-23T05:34:33;12.37;;;7.00;;
4521;SDS011;2273;48.464;11.926;2023-04-23T05:36:59;9.10;;;6.70;;
4521;SDS011;2273;48.464;11.926;2023-04-23T05:39:24;9.97;;;6.93;;
4521;SDS011;2273;48.464;11.926;2023-04-23T05:41:50;11.73;;;7.07;;
4521;SDS011;2273;48.464;11.926;2023-04-23T05:44:15;9.40;;;6.87;;
4521;SDS011;2273;48.464;11.926;2023-04-23T05:46:41;12.97;;;7.30;;
4521;SDS011;2273;48.464;11.926;2023-04-23T05:49:06;11.20;;;7.33;;
4521;SDS011;2273;48.464;11.926;2023-04-23T05:51:32;14.43;;;6.80;;
4521;SDS011;2273;48.464;11.926;2023-04-23T05:53:57;12.57;;;7.30;;
4521;SDS011;2273;48.464;11.926;2023-04-23T05:56:22;11.60;;;7.43;;
4521;SDS011;2273;48.464;11.926;2023-04-23T05:58:48;10.50;;;6.70;;
4521;SDS011;2273;48.464;11.926;2023-04-23T06:01:13;13.70;;;7.13;;
4521;SDS011;2273;48.464;11.926;2023-04-23T06:03:39;10.73;;;6.63;;
4521;SDS011;2273;48.464;11.926;2023-04-23T06:06:09;10.30;;;6.60;;
4521;SDS011;2273;48.464;11.926;2023-04-23T06:08:35;7.90;;;5.67;;
4521;SDS011;2273;48.464;11.926;2023-04-23T06:11:01;11.93;;;6.83;;
4521;SDS011;2273;48.464;11.926;2023-04-23T06:13:26;10.60;;;6.60;;
4521;SDS011;2273;48.464;11.926;2023-04-23T06:15:52;9.17;;;6.60;;
4521;SDS011;2273;48.464;11.926;2023-04-23T06:18:18;10.10;;;5.97;;
4521;SDS011;2273;48.464;11.926;2023-04-23T06:20:43;8.67;;;5.80;;
4521;SDS011;2273;48.464;11.926;2023-04-23T06:23:09;9.30;;;7.47;;
4521;SDS011;2273;48.464;11.926;2023-04-23T06:25:36;8.73;;;6.30;;
4521;SDS011;2273;48.464;11.926;2023-04-23T06:28:01;10.10;;;7.30;;
4521;SDS011;2273;48.464;11.926;2023-04-23T06:30:32;9.53;;;6.80;;
4521;SDS011;2273;48.464;11.926;2023-04-23T06:32:58;13.17;;;7.87;;
4521;SDS011;2273;48.464;11.926;2023-04-23T06:35:23;11.60;;;6.80;;
4521;SDS011;2273;48.464;11.926;2023-04-23T06:37:48;15.80;;;7.57;;
4521;SDS011;2273;48.464;11.926;2023-04-23T06:40:14;10.80;;;7.10;;
4521;SDS011;2273;48.464;11.926;2023-04-23T06:42:40;12.40;;;7.90;;
4521;SDS011;2273;48.464;11.926;2023-04-23T06:45:30;10.50;;;6.67;;
4521;SDS011;2273;48.464;11.926;2023-04-23T06:47:57;12.77;;;7.53;;
4521;SDS011;2273;48.464;11.926;2023-04-23T06:50:22;9.00;;;7.20;;
4521;SDS011;2273;48.464;11.926;2023-04-23T06:52:47;10.87;;;6.97;;
4521;SDS011;2273;48.464;11.926;2023-04-23T06:55:13;10.10;;;7.70;;
4521;SDS011;2273;48.464;11.926;2023-04-23T06:57:39;10.43;;;7.50;;
4521;SDS011;2273;48.464;11.926;2023-04-23T07:00:05;10.60;;;8.30;;
4521;SDS011;2273;48.464;11.926;2023-04-23T07:02:37;9.40;;;7.17;;
4521;SDS011;2273;48.464;11.926;2023-04-23T07:05:02;9.80;;;6.70;;
4521;SDS011;2273;48.464;11.926;2023-04-23T07:07:28;18.20;;;8.00;;
4521;SDS011;2273;48.464;11.926;2023-04-23T07:09:54;11.67;;;7.47;;
4521;SDS011;2273;48.464;11.926;2023-04-23T07:12:19;14.07;;;8.40;;
4521;SDS011;2273;48.464;11.926;2023-04-23T07:14:45;10.87;;;8.00;;
4521;SDS011;2273;48.464;11.926;2023-04-23T07:17:10;10.37;;;7.60;;
4521;SDS011;2273;48.464;11.926;2023-04-23T07:19:36;18.07;;;8.70;;
4521;SDS011;2273;48.464;11.926;2023-04-23T07:22:01;8.83;;;6.50;;
4521;SDS011;2273;48.464;11.926;2023-04-23T07:24:27;7.97;;;6.27;;
4521;SDS011;2273;48.464;11.926;2023-04-23T07:26:53;8.60;;;6.90;;
4521;SDS011;2273;48.464;11.926;2023-04-23T07:29:18;8.90;;;7.43;;
4521;SDS011;2273;48.464;11.926;2023-04-23T07:31:44;10.53;;;7.30;;
4521;SDS011;2273;48.464;11.926;2023-04-23T07:34:10;11.03;;;6.90;;
4521;SDS011;2273;48.464;11.926;2023-04-23T07:36:36;8.87;;;6.90;;
4521;SDS011;2273;48.464;11.926;2023-04-23T07:39:01;7.20;;;6.10;;
4521;SDS011;2273;48.464;11.926;2023-04-23T07:41:27;9.07;;;6.10;;
4521;SDS011;2273;48.464;11.926;2023-04-23T07:43:52;13.57;;;6.33;;
4521;SDS011;2273;48.464;11.926;2023-04-23T07:46:17;10.23;;;6.87;;
4521;SDS011;2273;48.464;11.926;2023-04-23T07:48:44;9.80;;;7.13;;
4521;SDS011;2273;48.464;11.926;2023-04-23T07:51:09;10.57;;;6.67;;
4521;SDS011;2273;48.464;11.926;2023-04-23T07:53:35;9.67;;;6.23;;
4521;SDS011;2273;48.464;11.926;2023-04-23T07:56:00;15.30;;;6.80;;
4521;SDS011;2273;48.464;11.926;2023-04-23T07:58:25;9.97;;;6.80;;
4521;SDS011;2273;48.464;11.926;2023-04-23T08:00:51;10.77;;;7.83;;
4521;SDS011;2273;48.464;11.926;2023-04-23T08:03:16;12.07;;;8.10;;
4521;SDS011;2273;48.464;11.926;2023-04-23T08:05:42;10.97;;;7.70;;
4521;SDS011;2273;48.464;11.926;2023-04-23T08:08:07;12.30;;;8.70;;
4521;SDS011;2273;48.464;11.926;2023-04-23T08:10:35;11.83;;;6.77;;
4521;SDS011;2273;48.464;11.926;2023-04-23T08:13:01;9.13;;;7.10;;
4521;SDS011;2273;48.464;11.926;2023-04-23T08:15:26;10.93;;;6.67;;
4521;SDS011;2273;48.464;11.926;2023-04-23T08:17:52;12.77;;;6.50;;
4521;SDS011;2273;48.464;11.926;2023-04-23T08:20:17;10.13;;;6.63;;
4521;SDS011;2273;48.464;11.926;2023-04-23T08:22:43;11.17;;;7.20;;
4521;SDS011;2273;48.464;11.926;2023-04-23T08:25:08;10.50;;;6.60;;
4521;SDS011;2273;48.464;11.926;2023-04-23T08:27:34;7.53;;;5.50;;
4521;SDS011;2273;48.464;11.926;2023-04-23T08:29:59;9.73;;;7.27;;
4521;SDS011;2273;48.464;11.926;2023-04-23T08:32:25;7.97;;;6.23;;
4521;SDS011;2273;48.464;11.926;2023-04-23T08:34:50;9.43;;;6.53;;
4521;SDS011;2273;48.464;11.926;2023-04-23T08:37:16;9.17;;;6.33;;
4521;SDS011;2273;48.464;11.926;2023-04-23T08:39:41;9.70;;;5.60;;
4521;SDS011;2273;48.464;11.926;2023-04-23T08:42:09;11.90;;;6.70;;
4521;SDS011;2273;48.464;11.926;2023-04-23T08:44:37;8.20;;;5.50;;
4521;SDS011;2273;48.464;11.926;2023-04-23T08:47:03;11.03;;;6.47;;
4521;SDS011;2273;48.464;11.926;2023-04-23T08:49:32;5.90;;;4.70;;
4521;SDS011;2273;48.464;11.926;2023-04-23T08:52:01;6.20;;;5.00;;
4521;SDS011;2273;48.464;11.926;2023-04-23T08:54:33;7.73;;;4.67;;
4521;SDS011;2273;48.464;11.926;2023-04-23T08:57:01;6.03;;;4.67;;
4521;SDS011;2273;48.464;11.926;2023-04-23T08:59:29;8.33;;;5.17;;
4521;SDS011;2273;48.464;11.926;2023-04-23T09:01:55;9.23;;;5.90;;
4521;SDS011;2273;48.464;11.926;2023-04-23T09:04:21;8.17;;;5.10;;
4521;SDS011;2273;48.464;11.926;2023-04-23T09:06:48;10.37;;;5.20;;
4521;SDS011;2273;48.464;11.926;2023-04-23T09:09:14;7.60;;;5.20;;
4521;SDS011;2273;48.464;11.926;2023-04-23T09:11:41;7.73;;;5.03;;
4521;SDS011;2273;48.464;11.926;2023-04-23T09:14:07;8.93;;;6.00;;
4521;SDS011;2273;48.464;11.926;2023-04-23T09:16:32;7.43;;;5.17;;
4521;SDS011;2273;48.464;11.926;2023-04-23T09:18:58;6.70;;;4.97;;
4521;SDS011;2273;48.464;11.926;2023-04-23T09:21:23;7.40;;;5.37;;
4521;SDS011;2273;48.464;11.926;2023-04-23T09:23:52;8.87;;;5.47;;
4521;SDS011;2273;48.464;11.926;2023-04-23T09:26:18;7.23;;;5.80;;
4521;SDS011;2273;48.464;11.926;2023-04-23T09:28:46;8.93;;;5.67;;
4521;SDS011;2273;48.464;11.926;2023-04-23T09:31:13;7.30;;;5.33;;
4521;SDS011;2273;48.464;11.926;2023-04-23T09:33:38;10.53;;;5.90;;
4521;SDS011;2273;48.464;11.926;2023-04-23T09:36:04;11.20;;;6.23;;
4521;SDS011;2273;48.464;11.926;2023-04-23T09:38:38;8.37;;;6.00;;
4521;SDS011;2273;48.464;11.926;2023-04-23T09:43:51;7.97;;;6.30;;
4521;SDS011;2273;48.464;11.926;2023-04-23T09:46:17;12.80;;;5.13;;
4521;SDS011;2273;48.464;11.926;2023-04-23T09:48:43;7.70;;;5.27;;
4521;SDS011;2273;48.464;11.926;2023-04-23T09:51:10;5.60;;;4.60;;
4521;SDS011;2273;48.464;11.926;2023-04-23T09:53:41;8.97;;;4.97;;
4521;SDS011;2273;48.464;11.926;2023-04-23T09:56:07;6.80;;;4.90;;
4521;SDS011;2273;48.464;11.926;2023-04-23T09:58:32;9.10;;;4.77;;
4521;SDS011;2273;48.464;11.926;2023-04-23T10:01:07;5.80;;;5.00;;
4521;SDS011;2273;48.464;11.926;2023-04-23T10:03:33;8.03;;;4.67;;
4521;SDS011;2273;48.464;11.926;2023-04-23T10:05:58;7.27;;;5.33;;
4521;SDS011;2273;48.464;11.926;2023-04-23T10:08:25;8.20;;;6.30;;
4521;SDS011;2273;48.464;11.926;2023-04-23T10:10:51;7.10;;;5.80;;
4521;SDS011;2273;48.464;11.926;2023-04-23T10:13:17;7.57;;;6.03;;
4521;SDS011;2273;48.464;11.926;2023-04-23T10:15:42;9.90;;;6.87;;
4521;SDS011;2273;48.464;11.926;2023-04-23T10:18:10;7.63;;;5.97;;
4521;SDS011;2273;48.464;11.926;2023-04-23T10:20:38;11.70;;;7.00;;
4521;SDS011;2273;48.464;11.926;2023-04-23T10:23:04;8.27;;;6.13;;
4521;SDS011;2273;48.464;11.926;2023-04-23T10:25:31;7.90;;;5.70;;
4521;SDS011;2273;48.464;11.926;2023-04-23T10:27:57;7.63;;;5.50;;
4521;SDS011;2273;48.464;11.926;2023-04-23T10:30:26;12.30;;;6.30;;
4521;SDS011;2273;48.464;11.926;2023-04-23T10:32:52;7.90;;;6.60;;
4521;SDS011;2273;48.464;11.926;2023-04-23T10:35:18;9.77;;;6.43;;
4521;SDS011;2273;48.464;11.926;2023-04-23T10:37:43;9.33;;;6.13;;
4521;SDS011;2273;48.464;11.926;2023-04-23T10:40:14;6.40;;;4.80;;
4521;SDS011;2273;48.464;11.926;2023-04-23T10:42:43;4.87;;;4.03;;
4521;SDS011;2273;48.464;11.926;2023-04-23T10:45:13;6.80;;;4.30;;
4521;SDS011;2273;48.464;11.926;2023-04-23T10:47:42;7.97;;;5.17;;
4521;SDS011;2273;48.464;11.926;2023-04-23T10:50:22;6.80;;;4.57;;
4521;SDS011;2273;48.464;11.926;2023-04-23T10:52:49;6.20;;;5.07;;
4521;SDS011;2273;48.464;11.926;2023-04-23T10:55:22;7.80;;;5.40;;
4521;SDS011;2273;48.464;11.926;2023-04-23T11:00:28;7.37;;;5.57;;
4521;SDS011;2273;48.464;11.926;2023-04-23T11:05:56;6.30;;;4.90;;
4521;SDS011;2273;48.464;11.926;2023-04-23T11:08:24;10.60;;;5.07;;
4521;SDS011;2273;48.464;11.926;2023-04-23T11:10:50;7.33;;;5.53;;
4521;SDS011;2273;48.464;11.926;2023-04-23T11:13:23;6.63;;;5.57;;
4521;SDS011;2273;48.464;11.926;2023-04-23T11:16:11;7.30;;;5.60;;
4521;SDS011;2273;48.464;11.926;2023-04-23T11:24:38;6.20;;;5.00;;
4521;SDS011;2273;48.464;11.926;2023-04-23T11:27:09;7.43;;;4.93;;
4521;SDS011;2273;48.464;11.926;2023-04-23T11:29:42;6.87;;;5.50;;
4521;SDS011;2273;48.464;11.926;2023-04-23T11:32:09;7.30;;;5.37;;
4521;SDS011;2273;48.464;11.926;2023-04-23T11:34:40;6.93;;;5.03;;
4521;SDS011;2273;48.464;11.926;2023-04-23T11:37:11;6.00;;;5.20;;
4521;SDS011;2273;48.464;11.926;2023-04-23T11:39:38;6.37;;;5.00;;
4521;SDS011;2273;48.464;11.926;2023-04-23T11:42:08;6.47;;;4.80;;
4521;SDS011;2273;48.464;11.926;2023-04-23T11:44:38;6.93;;;4.30;;
4521;SDS011;2273;48.464;11.926;2023-04-23T11:47:08;7.50;;;4.13;;
4521;SDS011;2273;48.464;11.926;2023-04-23T11:49:37;6.10;;;4.97;;
4521;SDS011;2273;48.464;11.926;2023-04-23T11:52:03;6.80;;;4.80;;
4521;SDS011;2273;48.464;11.926;2023-04-23T11:54:29;7.80;;;4.30;;
4521;SDS011;2273;48.464;11.926;2023-04-23T11:56:55;5.17;;;4.20;;
4521;SDS011;2273;48.464;11.926;2023-04-23T11:59:22;6.13;;;4.70;;
4521;SDS011;2273;48.464;11.926;2023-04-23T12:01:48;5.73;;;4.10;;
4521;SDS011;2273;48.464;11.926;2023-04-23T12:04:19;5.53;;;4.10;;
4521;SDS011;2273;48.464;11.926;2023-04-23T12:06:48;6.43;;;4.33;;
4521;SDS011;2273;48.464;11.926;2023-04-23T12:09:15;6.93;;;4.63;;
4521;SDS011;2273;48.464;11.926;2023-04-23T12:11:42;4.70;;;3.90;;
4521;SDS011;2273;48.464;11.926;2023-04-23T12:14:10;6.00;;;3.83;;
4521;SDS011;2273;48.464;11.926;2023-04-23T12:19:06;7.80;;;3.90;;
4521;SDS011;2273;48.464;11.926;2023-04-23T12:21:32;5.20;;;4.00;;
4521;SDS011;2273;48.464;11.926;2023-04-23T12:23:58;8.80;;;3.80;;
4521;SDS011;2273;48.464;11.926;2023-04-23T12:26:24;8.93;;;3.50;;
4521;SDS011;2273;48.464;11.926;2023-04-23T12:31:19;5.07;;;3.20;;
4521;SDS011;2273;48.464;11.926;2023-04-23T12:33:45;6.07;;;3.70;;
4521;SDS011;2273;48.464;11.926;2023-04-23T12:36:13;4.97;;;3.77;;
4521;SDS011;2273;48.464;11.926;2023-04-23T12:38:40;5.63;;;4.20;;
4521;SDS011;2273;48.464;11.926;2023-04-23T12:41:06;4.80;;;3.27;;
4521;SDS011;2273;48.464;11.926;2023-04-23T12:43:32;5.43;;;3.00;;
4521;SDS011;2273;48.464;11.926;2023-04-23T12:45:57;5.90;;;3.83;;
4521;SDS011;2273;48.464;11.926;2023-04-23T12:48:23;5.70;;;3.97;;
4521;SDS011;2273;48.464;11.926;2023-04-23T12:50:48;4.83;;;3.30;;
4521;SDS011;2273;48.464;11.926;2023-04-23T12:53:14;4.10;;;3.00;;
4521;SDS011;2273;48.464;11.926;2023-04-23T12:55:39;4.50;;;3.43;;
4521;SDS011;2273;48.464;11.926;2023-04-23T12:58:07;6.23;;;3.83;;
4521;SDS011;2273;48.464;11.926;2023-04-23T13:00:32;4.77;;;3.40;;
4521;SDS011;2273;48.464;11.926;2023-04-23T13:02:58;3.70;;;3.10;;
4521;SDS011;2273;48.464;11.926;2023-04-23T13:05:23;6.50;;;3.83;;
4521;SDS011;2273;48.464;11.926;2023-04-23T13:07:49;6.83;;;4.73;;
4521;SDS011;2273;48.464;11.926;2023-04-23T13:10:14;6.23;;;4.27;;
4521;SDS011;2273;48.464;11.926;2023-04-23T13:12:40;5.23;;;3.50;;
4521;SDS011;2273;48.464;11.926;2023-04-23T13:15:06;4.37;;;3.50;;
4521;SDS011;2273;48.464;11.926;2023-04-23T13:17:33;4.80;;;3.13;;
4521;SDS011;2273;48.464;11.926;2023-04-23T13:19:59;4.03;;;3.23;;
4521;SDS011;2273;48.464;11.926;2023-04-23T13:22:24;4.23;;;3.20;;
4521;SDS011;2273;48.464;11.926;2023-04-23T13:24:53;4.70;;;3.13;;
4521;SDS011;2273;48.464;11.926;2023-04-23T13:27:21;5.13;;;2.93;;
4521;SDS011;2273;48.464;11.926;2023-04-23T13:29:47;5.63;;;3.70;;
4521;SDS011;2273;48.464;11.926;2023-04-23T13:32:12;4.80;;;3.60;;
4521;SDS011;2273;48.464;11.926;2023-04-23T13:34:37;6.53;;;3.47;;
4521;SDS011;2273;48.464;11.926;2023-04-23T13:37:03;4.47;;;3.47;;
4521;SDS011;2273;48.464;11.926;2023-04-23T13:39:30;3.97;;;3.13;;
4521;SDS011;2273;48.464;11.926;2023-04-23T13:41:56;3.43;;;2.90;;
4521;SDS011;2273;48.464;11.926;2023-04-23T13:44:21;4.70;;;3.13;;
4521;SDS011;2273;48.464;11.926;2023-04-23T13:46:47;4.63;;;2.70;;
4521;SDS011;2273;48.464;11.926;2023-04-23T13:49:14;4.80;;;3.43;;
4521;SDS011;2273;48.464;11.926;2023-04-23T13:51:39;5.33;;;3.30;;
4521;SDS011;2273;48.464;11.926;2023-04-23T13:54:04;5.07;;;3.20;;
4521;SDS011;2273;48.464;11.926;2023-04-23T13:56:30;5.17;;;3.37;;
4521;SDS011;2273;48.464;11.926;2023-04-23T13:58:56;3.73;;;3.00;;
4521;SDS011;2273;48.464;11.926;2023-04-23T14:01:27;4.80;;;3.30;;
4521;SDS011;2273;48.464;11.926;2023-04-23T14:03:53;3.50;;;3.00;;
4521;SDS011;2273;48.464;11.926;2023-04-23T14:06:19;4.83;;;3.10;;
4521;SDS011;2273;48.464;11.926;2023-04-23T14:08:45;5.10;;;3.40;;
4521;SDS011;2273;48.464;11.926;2023-04-23T14:11:10;4.43;;;3.30;;
4521;SDS011;2273;48.464;11.926;2023-04-23T14:13:35;4.27;;;2.83;;
4521;SDS011;2273;48.464;11.926;2023-04-23T14:16:01;3.90;;;3.00;;
4521;SDS011;2273;48.464;11.926;2023-04-23T14:18:26;6.13;;;3.40;;
4521;SDS011;2273;48.464;11.926;2023-04-23T14:20:52;3.90;;;3.20;;
4521;SDS011;2273;48.464;11.926;2023-04-23T14:25:46;5.80;;;3.40;;
4521;SDS011;2273;48.464;11.926;2023-04-23T14:28:23;3.47;;;2.70;;
4521;SDS011;2273;48.464;11.926;2023-04-23T14:30:56;5.20;;;3.10;;
4521;SDS011;2273;48.464;11.926;2023-04-23T14:33:22;4.30;;;3.30;;
4521;SDS011;2273;48.464;11.926;2023-04-23T14:35:47;5.60;;;3.00;;
4521;SDS011;2273;48.464;11.926;2023-04-23T14:38:13;5.47;;;3.57;;
4521;SDS011;2273;48.464;11.926;2023-04-23T14:40:38;5.80;;;3.83;;
4521;SDS011;2273;48.464;11.926;2023-04-23T14:43:03;3.80;;;3.00;;
4521;SDS011;2273;48.464;11.926;2023-04-23T14:45:29;3.80;;;2.93;;
4521;SDS011;2273;48.464;11.926;2023-04-23T14:47:56;4.40;;;3.30;;
4521;SDS011;2273;48.464;11.926;2023-04-23T14:50:22;7.77;;;3.03;;
4521;SDS011;2273;48.464;11.926;2023-04-23T14:52:48;4.27;;;3.20;;
4521;SDS011;2273;48.464;11.926;2023-04-23T14:55:13;4.67;;;2.77;;
4521;SDS011;2273;48.464;11.926;2023-04-23T14:57:39;4.80;;;2.97;;
4521;SDS011;2273;48.464;11.926;2023-04-23T15:00:05;4.03;;;2.93;;
4521;SDS011;2273;48.464;11.926;2023-04-23T15:02:32;5.10;;;3.30;;
4521;SDS011;2273;48.464;11.926;2023-04-23T15:04:58;6.97;;;2.93;;
4521;SDS011;2273;48.464;11.926;2023-04-23T15:07:24;3.13;;;2.70;;
4521;SDS011;2273;48.464;11.926;2023-04-23T15:09:50;4.57;;;3.10;;
4521;SDS011;2273;48.464;11.926;2023-04-23T15:14:56;4.73;;;2.97;;
4521;SDS011;2273;48.464;11.926;2023-04-23T15:17:21;4.70;;;3.00;;